createdAt,value
2023-03-19T00:00:52.260Z,10.40
2023-03-19T00:03:20.024Z,10.40
2023-03-19T00:05:53.018Z,10.40
2023-03-19T00:08:21.283Z,10.40
2023-03-19T00:10:49.324Z,10.30
2023-03-19T00:13:17.124Z,10.30
2023-03-19T00:15:44.972Z,10.20
2023-03-19T00:18:13.126Z,10.10
2023-03-19T00:20:40.896Z,10.20
2023-03-19T00:23:09.258Z,10.10
2023-03-19T00:25:37.404Z,10.10
2023-03-19T00:28:05.150Z,10.20
2023-03-19T00:30:32.934Z,10.30
2023-03-19T00:33:01.424Z,10.40
2023-03-19T00:35:29.275Z,10.20
2023-03-19T00:37:56.950Z,10.20
2023-03-19T00:40:25.409Z,10.20
2023-03-19T00:42:53.422Z,10.10
2023-03-19T00:45:21.836Z,10.00
2023-03-19T00:47:49.581Z,9.90
2023-03-19T00:50:17.659Z,9.90
2023-03-19T00:52:45.698Z,10.10
2023-03-19T00:55:13.418Z,10.30
2023-03-19T00:57:41.203Z,10.10
2023-03-19T01:00:09.699Z,9.90
2023-03-19T01:02:37.514Z,9.80
2023-03-19T01:05:05.674Z,9.80
2023-03-19T01:07:33.506Z,9.80
2023-03-19T01:10:01.642Z,9.90
2023-03-19T01:12:30.103Z,9.90
2023-03-19T01:14:57.853Z,9.90
2023-03-19T01:17:26.065Z,9.80
2023-03-19T01:19:54.120Z,9.80
2023-03-19T01:22:22.040Z,9.80
2023-03-19T01:24:55.652Z,9.70
2023-03-19T01:27:23.813Z,9.70
2023-03-19T01:29:52.146Z,9.70
2023-03-19T01:32:49.210Z,9.70
2023-03-19T01:35:31.453Z,9.70
2023-03-19T01:37:59.469Z,9.70
2023-03-19T01:40:27.492Z,9.80
2023-03-19T01:43:12.877Z,9.80
2023-03-19T01:45:55.822Z,9.80
2023-03-19T01:48:48.820Z,9.80
2023-03-19T01:51:25.722Z,9.80
2023-03-19T01:54:19.656Z,9.80
2023-03-19T01:57:03.449Z,9.80
2023-03-19T02:00:12.651Z,9.70
2023-03-19T02:02:53.717Z,9.70
2023-03-19T02:05:46.792Z,9.80
2023-03-19T02:08:18.246Z,9.80
2023-03-19T02:10:48.309Z,9.80
2023-03-19T02:13:16.335Z,10.20
2023-03-19T02:15:44.412Z,10.20
2023-03-19T02:18:13.008Z,10.20
2023-03-19T02:21:04.816Z,10.10
2023-03-19T02:23:57.877Z,9.80
2023-03-19T02:26:43.498Z,9.90
2023-03-19T02:29:11.397Z,9.90
2023-03-19T02:31:39.345Z,9.90
2023-03-19T02:34:27.284Z,9.70
2023-03-19T02:37:00.122Z,9.60
2023-03-19T02:39:54.727Z,9.70
2023-03-19T02:42:24.557Z,9.60
2023-03-19T02:44:52.251Z,9.50
2023-03-19T02:47:20.150Z,9.30
2023-03-19T02:49:47.961Z,9.40
2023-03-19T02:52:16.914Z,9.40
2023-03-19T02:54:44.667Z,9.30
2023-03-19T02:57:12.800Z,9.10
2023-03-19T02:59:40.693Z,9.00
2023-03-19T03:02:10.239Z,8.90
2023-03-19T03:04:38.063Z,9.00
2023-03-19T03:07:06.358Z,9.10
2023-03-19T03:09:34.659Z,9.40
2023-03-19T03:12:02.518Z,9.50
2023-03-19T03:14:30.407Z,9.50
2023-03-19T03:16:58.874Z,9.40
2023-03-19T03:19:27.313Z,9.50
2023-03-19T03:21:55.925Z,9.60
2023-03-19T03:24:24.433Z,9.60
2023-03-19T03:26:52.300Z,9.60
2023-03-19T03:29:21.604Z,9.60
2023-03-19T03:31:49.460Z,9.60
2023-03-19T03:34:17.626Z,9.50
2023-03-19T03:36:47.240Z,9.40
2023-03-19T03:39:15.330Z,9.40
2023-03-19T03:41:43.248Z,9.30
2023-03-19T03:44:12.147Z,9.20
2023-03-19T03:46:43.571Z,9.20
2023-03-19T03:49:11.595Z,9.10
2023-03-19T03:51:39.384Z,9.10
2023-03-19T03:54:07.690Z,8.90
2023-03-19T03:56:35.817Z,8.90
2023-03-19T03:59:04.012Z,9.10
2023-03-19T04:01:31.925Z,9.20
2023-03-19T04:04:00.363Z,9.20
2023-03-19T04:06:28.541Z,9.20
2023-03-19T04:09:25.308Z,9.20
2023-03-19T04:11:53.058Z,9.20
2023-03-19T04:14:20.795Z,9.20
2023-03-19T04:16:48.518Z,9.20
2023-03-19T04:19:16.338Z,9.10
2023-03-19T04:21:45.118Z,9.00
2023-03-19T04:24:13.193Z,9.20
2023-03-19T04:26:41.730Z,9.20
2023-03-19T04:29:09.752Z,9.30
2023-03-19T04:31:38.517Z,9.30
2023-03-19T04:34:06.717Z,9.40
2023-03-19T04:36:35.786Z,9.30
2023-03-19T04:39:04.024Z,9.30
2023-03-19T04:41:32.669Z,9.20
2023-03-19T04:44:20.705Z,9.20
2023-03-19T04:46:49.450Z,9.20
2023-03-19T04:49:19.502Z,9.10
2023-03-19T04:51:47.797Z,9.10
2023-03-19T04:54:16.565Z,9.20
2023-03-19T04:56:44.414Z,9.30
2023-03-19T04:59:12.334Z,9.20
2023-03-19T05:01:40.201Z,9.00
2023-03-19T05:04:11.321Z,8.90
2023-03-19T05:06:40.075Z,9.00
2023-03-19T05:09:07.911Z,9.20
2023-03-19T05:11:35.741Z,9.20
2023-03-19T05:14:06.114Z,9.20
2023-03-19T05:16:55.142Z,9.20
2023-03-19T05:19:23.435Z,9.20
2023-03-19T05:21:51.314Z,9.40
2023-03-19T05:24:24.722Z,9.50
2023-03-19T05:26:53.484Z,9.50
2023-03-19T05:29:40.953Z,9.50
2023-03-19T05:32:22.391Z,9.50
2023-03-19T05:34:50.491Z,9.60
2023-03-19T05:37:19.025Z,9.50
2023-03-19T05:39:52.839Z,9.40
2023-03-19T05:42:20.450Z,9.40
2023-03-19T05:44:49.050Z,9.40
2023-03-19T05:47:27.247Z,9.30
2023-03-19T05:49:57.877Z,9.40
2023-03-19T05:52:25.895Z,9.40
2023-03-19T05:54:57.827Z,9.30
2023-03-19T05:57:36.892Z,9.30
2023-03-19T06:00:19.260Z,9.30
2023-03-19T06:02:48.287Z,9.20
2023-03-19T06:05:32.645Z,9.20
2023-03-19T06:08:21.677Z,9.30
2023-03-19T06:10:59.698Z,9.20
2023-03-19T06:13:28.202Z,9.20
2023-03-19T06:16:19.281Z,9.40
2023-03-19T06:18:54.809Z,9.40
2023-03-19T06:21:26.009Z,9.40
2023-03-19T06:23:53.847Z,9.40
2023-03-19T06:26:29.289Z,9.40
2023-03-19T06:28:59.095Z,9.50
2023-03-19T06:31:27.741Z,9.50
2023-03-19T06:34:02.085Z,9.50
2023-03-19T06:36:41.778Z,9.40
2023-03-19T06:39:12.328Z,9.60
2023-03-19T06:41:40.608Z,9.70
2023-03-19T06:44:18.252Z,9.60
2023-03-19T06:46:46.324Z,9.60
2023-03-19T06:49:14.071Z,9.70
2023-03-19T06:51:41.857Z,9.70
2023-03-19T06:54:09.580Z,9.70
2023-03-19T06:56:37.376Z,9.90
2023-03-19T06:59:05.461Z,9.90
2023-03-19T07:01:33.268Z,9.90
2023-03-19T07:04:01.012Z,10.00
2023-03-19T07:06:28.750Z,10.00
2023-03-19T07:08:56.687Z,10.00
2023-03-19T07:11:24.433Z,10.10
2023-03-19T07:13:52.442Z,10.10
2023-03-19T07:16:20.260Z,10.10
2023-03-19T07:18:48.107Z,10.10
2023-03-19T07:21:15.897Z,10.10
2023-03-19T07:23:44.033Z,10.10
2023-03-19T07:26:11.817Z,10.20
2023-03-19T07:28:39.966Z,10.20
2023-03-19T07:31:07.890Z,10.20
2023-03-19T07:33:35.861Z,10.30
2023-03-19T07:36:03.731Z,10.30
2023-03-19T07:38:31.572Z,10.40
2023-03-19T07:41:02.696Z,10.40
2023-03-19T07:43:31.747Z,10.50
2023-03-19T07:46:01.056Z,10.70
2023-03-19T07:48:28.848Z,10.80
2023-03-19T07:50:56.652Z,10.80
2023-03-19T07:53:24.595Z,10.80
2023-03-19T07:55:52.314Z,10.80
2023-03-19T07:58:20.114Z,10.80
2023-03-19T08:00:48.150Z,10.80
2023-03-19T08:03:16.183Z,10.90
2023-03-19T08:05:43.879Z,10.90
2023-03-19T08:08:11.850Z,11.00
2023-03-19T08:10:39.747Z,11.00
2023-03-19T08:13:07.600Z,11.00
2023-03-19T08:15:35.347Z,11.00
2023-03-19T08:18:05.232Z,11.10
2023-03-19T08:20:33.790Z,11.10
2023-03-19T08:23:01.946Z,11.20
2023-03-19T08:25:32.685Z,11.30
2023-03-19T08:28:01.406Z,11.40
2023-03-19T08:30:29.511Z,11.50
2023-03-19T08:32:57.759Z,11.50
2023-03-19T08:35:28.682Z,11.50
2023-03-19T08:37:56.866Z,11.60
2023-03-19T08:40:24.972Z,11.70
2023-03-19T08:42:53.951Z,11.60
2023-03-19T08:45:22.407Z,11.70
2023-03-19T08:47:50.218Z,11.70
2023-03-19T08:50:19.005Z,11.80
2023-03-19T08:52:46.905Z,11.90
2023-03-19T08:55:14.648Z,11.90
2023-03-19T08:57:42.766Z,11.90
2023-03-19T09:00:11.293Z,12.10
2023-03-19T09:02:40.444Z,12.10
2023-03-19T09:05:08.527Z,12.20
2023-03-19T09:07:36.216Z,12.30
2023-03-19T09:10:04.202Z,12.30
2023-03-19T09:12:31.942Z,12.30
2023-03-19T09:14:59.584Z,12.30
2023-03-19T09:17:27.437Z,12.40
2023-03-19T09:19:55.230Z,12.50
2023-03-19T09:22:22.917Z,12.50
2023-03-19T09:24:50.683Z,12.50
2023-03-19T09:27:19.211Z,12.50
2023-03-19T09:29:46.920Z,12.60
2023-03-19T09:32:14.724Z,12.70
2023-03-19T09:34:42.484Z,12.70
2023-03-19T09:37:11.964Z,12.70
2023-03-19T09:39:39.658Z,12.70
2023-03-19T09:42:28.275Z,12.80
2023-03-19T09:44:56.326Z,12.80
2023-03-19T09:47:46.773Z,12.90
2023-03-19T09:50:20.692Z,12.90
2023-03-19T09:53:04.175Z,12.90
2023-03-19T09:55:42.959Z,12.90
2023-03-19T09:58:20.920Z,13.00
2023-03-19T10:00:51.550Z,13.10
2023-03-19T10:03:38.014Z,13.20
2023-03-19T10:06:25.726Z,13.40
2023-03-19T10:09:12.721Z,13.50
2023-03-19T10:12:09.605Z,13.60
2023-03-19T10:14:55.555Z,13.90
2023-03-19T10:17:42.133Z,14.00
2023-03-19T10:20:16.014Z,14.10
2023-03-19T10:22:51.776Z,14.30
2023-03-19T10:25:25.046Z,14.40
2023-03-19T10:28:18.945Z,14.50
2023-03-19T10:31:04.770Z,14.70
2023-03-19T10:33:56.975Z,14.80
2023-03-19T10:36:31.335Z,14.90
2023-03-19T10:38:59.046Z,15.00
2023-03-19T10:41:58.029Z,15.10
2023-03-19T10:44:32.660Z,15.40
2023-03-19T10:47:13.994Z,15.30
2023-03-19T10:49:42.283Z,15.50
2023-03-19T10:52:20.862Z,15.60
2023-03-19T10:54:48.698Z,15.80
2023-03-19T10:57:31.924Z,15.60
2023-03-19T11:00:06.931Z,15.70
2023-03-19T11:02:36.602Z,15.70
2023-03-19T11:05:09.160Z,15.80
2023-03-19T11:07:38.445Z,16.00
2023-03-19T11:10:14.583Z,16.10
2023-03-19T11:12:47.644Z,16.20
2023-03-19T11:15:21.776Z,16.40
2023-03-19T11:17:50.785Z,16.40
2023-03-19T11:20:24.306Z,16.50
2023-03-19T11:22:53.499Z,16.60
2023-03-19T11:25:37.907Z,16.70
2023-03-19T11:28:10.193Z,16.70
2023-03-19T11:30:48.220Z,16.90
2023-03-19T11:33:31.902Z,16.80
2023-03-19T11:36:36.781Z,17.00
2023-03-19T11:39:46.207Z,17.00
2023-03-19T11:42:31.860Z,17.10
2023-03-19T11:45:35.119Z,17.00
2023-03-19T11:48:19.845Z,16.70
2023-03-19T11:50:53.272Z,16.60
2023-03-19T11:53:50.866Z,16.70
2023-03-19T11:56:44.977Z,16.80
2023-03-19T11:59:37.521Z,16.80
2023-03-19T12:02:23.508Z,17.00
2023-03-19T12:05:03.609Z,17.40
2023-03-19T12:07:43.318Z,17.40
2023-03-19T12:10:21.788Z,17.30
2023-03-19T12:13:08.602Z,16.80
2023-03-19T12:15:48.581Z,16.80
2023-03-19T12:18:39.236Z,16.70
2023-03-19T12:21:32.340Z,16.70
2023-03-19T12:24:09.334Z,16.70
2023-03-19T12:27:17.758Z,16.90
2023-03-19T12:29:57.544Z,16.80
2023-03-19T12:32:34.031Z,16.90
2023-03-19T12:35:09.771Z,16.80
2023-03-19T12:37:53.791Z,17.00
2023-03-19T12:40:35.262Z,17.10
2023-03-19T12:43:12.100Z,17.00
2023-03-19T12:45:45.029Z,17.00
2023-03-19T12:48:27.406Z,17.20
2023-03-19T12:50:59.751Z,17.40
2023-03-19T12:53:49.214Z,17.90
2023-03-19T12:56:28.678Z,18.30
2023-03-19T12:59:08.334Z,18.50
2023-03-19T13:01:42.651Z,18.80
2023-03-19T13:04:23.431Z,19.00
2023-03-19T13:07:13.975Z,18.80
2023-03-19T13:10:05.002Z,18.30
2023-03-19T13:12:35.537Z,18.40
2023-03-19T13:15:10.192Z,18.50
2023-03-19T13:18:01.902Z,18.60
2023-03-19T13:20:56.379Z,18.60
2023-03-19T13:23:34.425Z,18.50
2023-03-19T13:26:07.186Z,18.30
2023-03-19T13:28:53.889Z,18.20
2023-03-19T13:31:25.245Z,18.20
2023-03-19T13:34:17.720Z,18.20
2023-03-19T13:36:54.913Z,18.10
2023-03-19T13:39:28.753Z,17.80
2023-03-19T13:42:36.042Z,17.70
2023-03-19T13:45:36.092Z,17.90
2023-03-19T13:48:28.844Z,18.00
2023-03-19T13:51:05.772Z,17.70
2023-03-19T13:53:52.388Z,17.70
2023-03-19T13:56:29.591Z,17.60
2023-03-19T13:59:16.041Z,17.40
2023-03-19T14:01:45.028Z,17.40
2023-03-19T14:04:20.815Z,17.50
2023-03-19T14:07:17.053Z,17.60
2023-03-19T14:10:07.900Z,17.60
2023-03-19T14:12:38.291Z,17.60
2023-03-19T14:15:09.383Z,17.50
2023-03-19T14:17:51.153Z,17.40
2023-03-19T14:20:24.050Z,17.30
2023-03-19T14:23:23.378Z,17.20
2023-03-19T14:26:03.923Z,17.30
2023-03-19T14:28:37.467Z,17.20
2023-03-19T14:31:06.655Z,17.00
2023-03-19T14:33:52.192Z,17.00
2023-03-19T14:36:22.755Z,17.00
2023-03-19T14:38:56.882Z,17.00
2023-03-19T14:41:27.176Z,17.00
2023-03-19T14:44:08.173Z,17.00
2023-03-19T14:46:59.498Z,17.10
2023-03-19T14:49:46.100Z,17.00
2023-03-19T14:52:28.399Z,16.90
2023-03-19T14:54:56.171Z,16.80
2023-03-19T14:57:29.849Z,16.70
2023-03-19T14:59:57.625Z,16.70
2023-03-19T15:02:49.725Z,16.70
2023-03-19T15:05:26.407Z,16.70
2023-03-19T15:07:59.152Z,16.50
2023-03-19T15:10:41.928Z,16.50
2023-03-19T15:13:43.822Z,16.50
2023-03-19T15:16:23.306Z,16.50
2023-03-19T15:18:51.123Z,16.50
2023-03-19T15:21:20.124Z,16.60
2023-03-19T15:23:48.277Z,16.50
2023-03-19T15:26:18.760Z,16.50
2023-03-19T15:28:50.714Z,16.50
2023-03-19T15:31:31.671Z,16.50
2023-03-19T15:34:18.758Z,16.50
2023-03-19T15:36:47.550Z,16.40
2023-03-19T15:39:18.577Z,16.40
2023-03-19T15:41:50.704Z,16.30
2023-03-19T15:44:47.758Z,16.30
2023-03-19T15:47:24.128Z,16.30
2023-03-19T15:50:06.693Z,16.30
2023-03-19T15:52:38.875Z,16.20
2023-03-19T15:55:08.469Z,16.10
2023-03-19T15:57:39.789Z,16.10
2023-03-19T16:00:12.705Z,16.10
2023-03-19T16:02:42.529Z,16.10
2023-03-19T16:05:31.977Z,16.10
2023-03-19T16:08:11.219Z,16.00
2023-03-19T16:10:43.957Z,16.00
2023-03-19T16:13:31.862Z,16.00
2023-03-19T16:16:08.136Z,15.90
2023-03-19T16:18:54.761Z,15.90
2023-03-19T16:21:40.888Z,15.90
2023-03-19T16:24:08.655Z,15.90
2023-03-19T16:26:37.709Z,15.90
2023-03-19T16:29:44.855Z,15.90
2023-03-19T16:32:14.550Z,15.90
2023-03-19T16:34:49.250Z,15.80
2023-03-19T16:37:32.183Z,15.80
2023-03-19T16:40:20.886Z,15.70
2023-03-19T16:42:51.399Z,15.70
2023-03-19T16:45:22.046Z,15.60
2023-03-19T16:47:52.040Z,15.50
2023-03-19T16:50:22.686Z,15.60
2023-03-19T16:52:50.862Z,15.60
2023-03-19T16:55:35.879Z,15.50
2023-03-19T16:58:08.700Z,15.40
2023-03-19T17:00:36.517Z,15.40
2023-03-19T17:03:04.482Z,15.40
2023-03-19T17:05:34.096Z,15.50
2023-03-19T17:08:02.085Z,15.50
2023-03-19T17:10:31.854Z,15.60
2023-03-19T17:13:01.647Z,15.60
2023-03-19T17:15:33.983Z,15.60
2023-03-19T17:18:03.711Z,15.50
2023-03-19T17:20:37.437Z,15.50
2023-03-19T17:23:14.724Z,15.40
2023-03-19T17:25:43.639Z,15.40
2023-03-19T17:28:12.243Z,15.50
2023-03-19T17:30:42.222Z,15.40
2023-03-19T17:33:26.092Z,15.40
2023-03-19T17:35:55.498Z,15.40
2023-03-19T17:38:32.058Z,15.30
2023-03-19T17:40:59.849Z,15.30
2023-03-19T17:43:27.666Z,15.30
2023-03-19T17:45:57.123Z,15.30
2023-03-19T17:48:27.420Z,15.20
2023-03-19T17:51:00.449Z,15.10
2023-03-19T17:53:30.154Z,14.90
2023-03-19T17:55:58.168Z,14.60
2023-03-19T17:58:25.984Z,14.50
2023-03-19T18:00:53.825Z,14.40
2023-03-19T18:03:23.995Z,14.40
2023-03-19T18:05:52.191Z,14.40
2023-03-19T18:08:23.879Z,14.20
2023-03-19T18:10:52.162Z,14.20
2023-03-19T18:13:19.935Z,14.10
2023-03-19T18:15:47.757Z,14.00
2023-03-19T18:18:21.411Z,13.90
2023-03-19T18:20:49.675Z,13.90
2023-03-19T18:23:18.316Z,13.80
2023-03-19T18:25:46.928Z,13.70
2023-03-19T18:28:14.961Z,13.70
2023-03-19T18:30:44.303Z,13.60
2023-03-19T18:33:16.794Z,13.70
2023-03-19T18:35:46.023Z,13.70
2023-03-19T18:38:19.433Z,13.70
2023-03-19T18:40:48.129Z,13.70
2023-03-19T18:43:16.503Z,13.70
2023-03-19T18:45:47.652Z,13.70
2023-03-19T18:48:17.809Z,13.80
2023-03-19T18:50:47.679Z,13.70
2023-03-19T18:53:16.523Z,13.70
2023-03-19T18:55:45.092Z,13.70
2023-03-19T18:58:25.361Z,13.70
2023-03-19T19:00:54.346Z,13.70
2023-03-19T19:03:29.613Z,13.60
2023-03-19T19:05:57.476Z,13.60
2023-03-19T19:08:26.825Z,13.60
2023-03-19T19:10:59.408Z,13.50
2023-03-19T19:13:33.055Z,13.40
2023-03-19T19:16:02.814Z,13.40
2023-03-19T19:18:32.042Z,13.30
2023-03-19T19:21:02.170Z,13.20
2023-03-19T19:23:30.456Z,13.20
2023-03-19T19:25:58.307Z,13.20
2023-03-19T19:28:39.283Z,13.10
2023-03-19T19:31:24.945Z,12.90
2023-03-19T19:33:53.501Z,12.90
2023-03-19T19:36:22.729Z,12.80
2023-03-19T19:38:52.218Z,12.80
2023-03-19T19:41:26.560Z,12.70
2023-03-19T19:43:56.007Z,12.50
2023-03-19T19:46:24.780Z,12.50
2023-03-19T19:48:52.610Z,12.40
2023-03-19T19:51:25.897Z,12.40
2023-03-19T19:53:54.803Z,12.50
2023-03-19T19:56:26.075Z,12.60
2023-03-19T19:58:55.125Z,12.70
2023-03-19T20:01:28.144Z,12.70
2023-03-19T20:03:56.140Z,12.60
2023-03-19T20:06:24.127Z,12.60
2023-03-19T20:08:52.382Z,12.60
2023-03-19T20:11:24.825Z,12.70
2023-03-19T20:13:55.668Z,12.60
2023-03-19T20:16:27.029Z,12.50
2023-03-19T20:18:55.550Z,12.60
2023-03-19T20:21:23.460Z,12.50
2023-03-19T20:23:55.637Z,12.50
2023-03-19T20:26:25.463Z,12.60
2023-03-19T20:28:54.658Z,12.70
2023-03-19T20:31:29.757Z,12.70
2023-03-19T20:33:57.858Z,12.50
2023-03-19T20:36:26.876Z,12.50
2023-03-19T20:38:55.083Z,12.60
2023-03-19T20:41:26.035Z,12.60
2023-03-19T20:43:54.362Z,12.70
2023-03-19T20:46:23.458Z,12.70
2023-03-19T20:48:51.393Z,12.60
2023-03-19T20:51:22.857Z,12.60
2023-03-19T20:53:52.130Z,12.70
2023-03-19T20:56:22.756Z,12.60
2023-03-19T20:58:50.950Z,12.50
2023-03-19T21:01:18.888Z,12.50
2023-03-19T21:03:47.598Z,12.60
2023-03-19T21:06:23.951Z,12.70
2023-03-19T21:08:56.959Z,12.60
2023-03-19T21:11:37.500Z,12.50
2023-03-19T21:14:06.763Z,12.50
2023-03-19T21:16:34.919Z,12.50
2023-03-19T21:19:03.212Z,12.50
2023-03-19T21:21:34.602Z,12.50
2023-03-19T21:24:17.328Z,12.50
2023-03-19T21:26:46.704Z,12.50
2023-03-19T21:29:21.666Z,12.50
2023-03-19T21:31:49.835Z,12.50
2023-03-19T21:34:17.657Z,12.50
2023-03-19T21:36:45.891Z,12.50
2023-03-19T21:39:13.736Z,12.50
2023-03-19T21:41:42.473Z,12.50
2023-03-19T21:44:18.328Z,12.50
2023-03-19T21:46:48.634Z,12.30
2023-03-19T21:49:16.785Z,12.10
2023-03-19T21:51:45.895Z,12.00
2023-03-19T21:54:15.803Z,12.00
2023-03-19T21:56:45.766Z,12.10
2023-03-19T21:59:32.526Z,12.00
2023-03-19T22:02:00.865Z,11.90
2023-03-19T22:04:28.571Z,12.00
2023-03-19T22:06:56.698Z,12.10
2023-03-19T22:09:24.400Z,12.10
2023-03-19T22:11:52.551Z,12.30
2023-03-19T22:14:26.976Z,12.40
2023-03-19T22:16:56.315Z,12.30
2023-03-19T22:19:24.809Z,12.20
2023-03-19T22:21:52.729Z,12.30
2023-03-19T22:24:20.567Z,12.30
2023-03-19T22:26:51.214Z,12.30
2023-03-19T22:29:21.412Z,12.40
2023-03-19T22:31:49.857Z,12.30
2023-03-19T22:34:20.257Z,12.10
2023-03-19T22:36:49.578Z,12.10
2023-03-19T22:39:17.728Z,12.10
2023-03-19T22:41:48.053Z,12.20
2023-03-19T22:44:29.037Z,12.20
2023-03-19T22:46:59.187Z,12.20
2023-03-19T22:49:28.418Z,12.30
2023-03-19T22:51:56.765Z,12.30
2023-03-19T22:54:25.015Z,12.30
2023-03-19T22:56:52.883Z,12.40
2023-03-19T22:59:20.608Z,12.40
2023-03-19T23:01:48.756Z,12.30
2023-03-19T23:04:22.558Z,12.30
2023-03-19T23:06:51.829Z,12.20
2023-03-19T23:09:26.300Z,12.30
2023-03-19T23:11:54.376Z,12.30
2023-03-19T23:14:31.316Z,12.10
2023-03-19T23:17:03.704Z,12.10
2023-03-19T23:19:36.685Z,12.00
2023-03-19T23:22:06.235Z,12.00
2023-03-19T23:24:34.226Z,12.10
2023-03-19T23:27:02.911Z,12.20
2023-03-19T23:29:36.262Z,12.20
2023-03-19T23:32:05.043Z,12.20
2023-03-19T23:34:39.796Z,12.10
2023-03-19T23:37:13.894Z,12.10
2023-03-19T23:39:42.884Z,12.10
2023-03-19T23:42:25.269Z,12.00
2023-03-19T23:44:58.918Z,12.10
2023-03-19T23:47:28.783Z,11.90
2023-03-19T23:49:57.138Z,11.90
2023-03-19T23:52:24.890Z,12.00
2023-03-19T23:54:52.654Z,12.00
2023-03-19T23:57:26.662Z,12.00
2023-03-19T23:59:54.582Z,12.10
